sensor_id;sensor_type;location;lat;lon;timestamp;P1;durP1;ratioP1;P2;durP2;ratioP2
8361;SDS011;4218;48.326;14.304;2023-02-13T00:00:18;40.20;;;36.80;;
8361;SDS011;4218;48.326;14.304;2023-02-13T00:02:45;29.30;;;26.43;;
8361;SDS011;4218;48.326;14.304;2023-02-13T00:05:11;33.03;;;30.07;;
8361;SDS011;4218;48.326;14.304;2023-02-13T00:07:36;34.30;;;31.20;;
8361;SDS011;4218;48.326;14.304;2023-02-13T00:10:02;30.50;;;27.63;;
8361;SDS011;4218;48.326;14.304;2023-02-13T00:12:27;29.47;;;26.47;;
8361;SDS011;4218;48.326;14.304;2023-02-13T00:14:53;29.73;;;25.90;;
8361;SDS011;4218;48.326;14.304;2023-02-13T00:17:18;33.17;;;26.50;;
8361;SDS011;4218;48.326;14.304;2023-02-13T00:19:47;30.97;;;27.93;;
8361;SDS011;4218;48.326;14.304;2023-02-13T00:22:12;31.53;;;28.00;;
8361;SDS011;4218;48.326;14.304;2023-02-13T00:24:37;32.87;;;28.00;;
8361;SDS011;4218;48.326;14.304;2023-02-13T00:27:03;40.00;;;31.87;;
8361;SDS011;4218;48.326;14.304;2023-02-13T00:29:28;40.10;;;29.67;;
8361;SDS011;4218;48.326;14.304;2023-02-13T00:31:54;40.47;;;32.50;;
8361;SDS011;4218;48.326;14.304;2023-02-13T00:34:19;47.83;;;31.73;;
8361;SDS011;4218;48.326;14.304;2023-02-13T00:36:45;48.10;;;32.03;;
8361;SDS011;4218;48.326;14.304;2023-02-13T00:39:10;54.17;;;36.40;;
8361;SDS011;4218;48.326;14.304;2023-02-13T00:41:37;58.03;;;37.20;;
8361;SDS011;4218;48.326;14.304;2023-02-13T00:44:03;82.90;;;38.67;;
8361;SDS011;4218;48.326;14.304;2023-02-13T00:46:28;80.03;;;39.63;;
8361;SDS011;4218;48.326;14.304;2023-02-13T00:48:53;71.03;;;37.40;;
8361;SDS011;4218;48.326;14.304;2023-02-13T00:51:19;79.13;;;34.67;;
8361;SDS011;4218;48.326;14.304;2023-02-13T00:53:44;75.07;;;36.33;;
8361;SDS011;4218;48.326;14.304;2023-02-13T00:56:10;71.50;;;34.93;;
8361;SDS011;4218;48.326;14.304;2023-02-13T00:58:35;66.10;;;33.77;;
8361;SDS011;4218;48.326;14.304;2023-02-13T01:01:01;57.10;;;31.50;;
8361;SDS011;4218;48.326;14.304;2023-02-13T01:03:27;80.40;;;34.10;;
8361;SDS011;4218;48.326;14.304;2023-02-13T01:05:52;57.70;;;30.77;;
8361;SDS011;4218;48.326;14.304;2023-02-13T01:08:20;56.77;;;32.57;;
8361;SDS011;4218;48.326;14.304;2023-02-13T01:10:46;70.00;;;33.33;;
8361;SDS011;4218;48.326;14.304;2023-02-13T01:13:13;64.43;;;32.33;;
8361;SDS011;4218;48.326;14.304;2023-02-13T01:15:39;61.13;;;32.17;;
8361;SDS011;4218;48.326;14.304;2023-02-13T01:18:05;50.40;;;32.80;;
8361;SDS011;4218;48.326;14.304;2023-02-13T01:20:31;54.40;;;32.53;;
8361;SDS011;4218;48.326;14.304;2023-02-13T01:22:56;62.20;;;30.90;;
8361;SDS011;4218;48.326;14.304;2023-02-13T01:25:22;55.70;;;31.50;;
8361;SDS011;4218;48.326;14.304;2023-02-13T01:27:48;71.20;;;34.40;;
8361;SDS011;4218;48.326;14.304;2023-02-13T01:30:15;56.80;;;30.23;;
8361;SDS011;4218;48.326;14.304;2023-02-13T01:32:42;51.37;;;32.07;;
8361;SDS011;4218;48.326;14.304;2023-02-13T01:35:10;57.07;;;31.77;;
8361;SDS011;4218;48.326;14.304;2023-02-13T01:37:38;76.57;;;32.77;;
8361;SDS011;4218;48.326;14.304;2023-02-13T01:40:04;56.00;;;32.53;;
8361;SDS011;4218;48.326;14.304;2023-02-13T01:42:32;73.77;;;32.00;;
8361;SDS011;4218;48.326;14.304;2023-02-13T01:44:59;57.03;;;33.33;;
8361;SDS011;4218;48.326;14.304;2023-02-13T01:47:40;62.03;;;32.97;;
8361;SDS011;4218;48.326;14.304;2023-02-13T01:50:10;65.97;;;33.80;;
8361;SDS011;4218;48.326;14.304;2023-02-13T01:52:52;51.50;;;32.60;;
8361;SDS011;4218;48.326;14.304;2023-02-13T01:55:26;62.17;;;32.50;;
8361;SDS011;4218;48.326;14.304;2023-02-13T01:58:05;52.87;;;28.60;;
8361;SDS011;4218;48.326;14.304;2023-02-13T02:00:33;45.60;;;29.43;;
8361;SDS011;4218;48.326;14.304;2023-02-13T02:03:11;52.90;;;27.93;;
8361;SDS011;4218;48.326;14.304;2023-02-13T02:05:39;46.33;;;25.17;;
8361;SDS011;4218;48.326;14.304;2023-02-13T02:08:07;41.23;;;26.03;;
8361;SDS011;4218;48.326;14.304;2023-02-13T02:10:34;42.10;;;26.50;;
8361;SDS011;4218;48.326;14.304;2023-02-13T02:13:05;49.63;;;29.20;;
8361;SDS011;4218;48.326;14.304;2023-02-13T02:15:35;49.03;;;29.20;;
8361;SDS011;4218;48.326;14.304;2023-02-13T02:18:00;49.70;;;26.17;;
8361;SDS011;4218;48.326;14.304;2023-02-13T02:40:36;76.73;;;33.43;;
8361;SDS011;4218;48.326;14.304;2023-02-13T02:43:32;62.87;;;31.97;;
8361;SDS011;4218;48.326;14.304;2023-02-13T02:51:55;69.03;;;29.67;;
8361;SDS011;4218;48.326;14.304;2023-02-13T02:54:39;69.43;;;33.63;;
8361;SDS011;4218;48.326;14.304;2023-02-13T02:57:29;63.63;;;30.13;;
8361;SDS011;4218;48.326;14.304;2023-02-13T03:00:17;56.47;;;29.50;;
8361;SDS011;4218;48.326;14.304;2023-02-13T03:03:19;61.33;;;30.40;;
8361;SDS011;4218;48.326;14.304;2023-02-13T03:06:16;75.50;;;31.43;;
8361;SDS011;4218;48.326;14.304;2023-02-13T03:09:03;58.90;;;30.07;;
8361;SDS011;4218;48.326;14.304;2023-02-13T03:11:56;61.20;;;31.47;;
8361;SDS011;4218;48.326;14.304;2023-02-13T03:14:41;56.10;;;29.00;;
8361;SDS011;4218;48.326;14.304;2023-02-13T03:17:12;55.07;;;30.30;;
8361;SDS011;4218;48.326;14.304;2023-02-13T03:23:02;52.40;;;30.00;;
8361;SDS011;4218;48.326;14.304;2023-02-13T03:28:32;60.87;;;29.77;;
8361;SDS011;4218;48.326;14.304;2023-02-13T03:36:51;80.10;;;32.80;;
8361;SDS011;4218;48.326;14.304;2023-02-13T03:45:13;78.83;;;36.20;;
8361;SDS011;4218;48.326;14.304;2023-02-13T03:48:02;64.90;;;31.67;;
8361;SDS011;4218;48.326;14.304;2023-02-13T03:50:33;87.47;;;37.77;;
8361;SDS011;4218;48.326;14.304;2023-02-13T03:53:05;73.93;;;32.23;;
8361;SDS011;4218;48.326;14.304;2023-02-13T03:55:34;86.70;;;35.47;;
8361;SDS011;4218;48.326;14.304;2023-02-13T03:58:25;75.63;;;31.07;;
8361;SDS011;4218;48.326;14.304;2023-02-13T04:01:18;68.03;;;31.70;;
8361;SDS011;4218;48.326;14.304;2023-02-13T04:03:49;61.50;;;31.00;;
8361;SDS011;4218;48.326;14.304;2023-02-13T04:06:19;61.43;;;31.83;;
8361;SDS011;4218;48.326;14.304;2023-02-13T04:08:48;46.30;;;30.20;;
8361;SDS011;4218;48.326;14.304;2023-02-13T04:11:14;55.07;;;30.63;;
8361;SDS011;4218;48.326;14.304;2023-02-13T04:13:42;62.47;;;30.40;;
8361;SDS011;4218;48.326;14.304;2023-02-13T04:16:18;64.87;;;32.83;;
8361;SDS011;4218;48.326;14.304;2023-02-13T04:18:47;58.77;;;30.50;;
8361;SDS011;4218;48.326;14.304;2023-02-13T04:21:16;61.33;;;30.80;;
8361;SDS011;4218;48.326;14.304;2023-02-13T04:23:41;68.43;;;32.53;;
8361;SDS011;4218;48.326;14.304;2023-02-13T04:26:07;55.43;;;29.90;;
8361;SDS011;4218;48.326;14.304;2023-02-13T04:28:37;70.27;;;29.50;;
8361;SDS011;4218;48.326;14.304;2023-02-13T04:31:02;70.23;;;30.83;;
8361;SDS011;4218;48.326;14.304;2023-02-13T04:33:28;75.00;;;34.13;;
8361;SDS011;4218;48.326;14.304;2023-02-13T04:35:53;86.17;;;35.67;;
8361;SDS011;4218;48.326;14.304;2023-02-13T04:38:19;72.60;;;34.17;;
8361;SDS011;4218;48.326;14.304;2023-02-13T04:40:44;96.50;;;35.43;;
8361;SDS011;4218;48.326;14.304;2023-02-13T04:43:10;102.93;;;36.03;;
8361;SDS011;4218;48.326;14.304;2023-02-13T04:45:35;94.43;;;37.10;;
8361;SDS011;4218;48.326;14.304;2023-02-13T04:48:00;94.20;;;39.83;;
8361;SDS011;4218;48.326;14.304;2023-02-13T04:50:26;83.70;;;38.13;;
8361;SDS011;4218;48.326;14.304;2023-02-13T04:52:52;78.10;;;35.60;;
8361;SDS011;4218;48.326;14.304;2023-02-13T04:55:19;83.27;;;39.53;;
8361;SDS011;4218;48.326;14.304;2023-02-13T04:57:45;99.63;;;39.87;;
8361;SDS011;4218;48.326;14.304;2023-02-13T05:00:12;83.30;;;40.27;;
8361;SDS011;4218;48.326;14.304;2023-02-13T05:02:38;92.47;;;41.20;;
8361;SDS011;4218;48.326;14.304;2023-02-13T05:05:03;92.50;;;49.23;;
8361;SDS011;4218;48.326;14.304;2023-02-13T05:07:29;80.00;;;33.87;;
8361;SDS011;4218;48.326;14.304;2023-02-13T05:09:54;96.60;;;39.37;;
8361;SDS011;4218;48.326;14.304;2023-02-13T05:12:21;86.53;;;40.40;;
8361;SDS011;4218;48.326;14.304;2023-02-13T05:14:46;113.17;;;43.23;;
8361;SDS011;4218;48.326;14.304;2023-02-13T05:17:11;92.37;;;48.90;;
8361;SDS011;4218;48.326;14.304;2023-02-13T05:19:37;85.00;;;45.00;;
8361;SDS011;4218;48.326;14.304;2023-02-13T05:22:02;71.67;;;38.43;;
8361;SDS011;4218;48.326;14.304;2023-02-13T05:24:46;69.17;;;34.97;;
8361;SDS011;4218;48.326;14.304;2023-02-13T05:27:11;80.00;;;39.20;;
8361;SDS011;4218;48.326;14.304;2023-02-13T05:29:37;81.03;;;39.50;;
8361;SDS011;4218;48.326;14.304;2023-02-13T05:32:02;68.63;;;33.13;;
8361;SDS011;4218;48.326;14.304;2023-02-13T05:34:28;97.40;;;38.70;;
8361;SDS011;4218;48.326;14.304;2023-02-13T05:36:53;91.57;;;39.87;;
8361;SDS011;4218;48.326;14.304;2023-02-13T05:39:19;80.93;;;38.30;;
8361;SDS011;4218;48.326;14.304;2023-02-13T05:41:47;79.90;;;36.90;;
8361;SDS011;4218;48.326;14.304;2023-02-13T05:44:14;87.70;;;36.93;;
8361;SDS011;4218;48.326;14.304;2023-02-13T05:46:40;80.13;;;37.67;;
8361;SDS011;4218;48.326;14.304;2023-02-13T05:49:07;93.23;;;37.33;;
8361;SDS011;4218;48.326;14.304;2023-02-13T05:51:33;73.43;;;31.50;;
8361;SDS011;4218;48.326;14.304;2023-02-13T05:53:58;70.03;;;33.63;;
8361;SDS011;4218;48.326;14.304;2023-02-13T05:56:23;85.30;;;38.77;;
8361;SDS011;4218;48.326;14.304;2023-02-13T05:58:55;75.17;;;35.37;;
8361;SDS011;4218;48.326;14.304;2023-02-13T06:01:21;99.90;;;35.20;;
8361;SDS011;4218;48.326;14.304;2023-02-13T06:03:47;89.17;;;39.13;;
8361;SDS011;4218;48.326;14.304;2023-02-13T06:06:13;75.90;;;43.07;;
8361;SDS011;4218;48.326;14.304;2023-02-13T06:08:39;91.10;;;35.77;;
8361;SDS011;4218;48.326;14.304;2023-02-13T06:11:05;90.87;;;37.73;;
8361;SDS011;4218;48.326;14.304;2023-02-13T06:13:31;95.73;;;41.07;;
8361;SDS011;4218;48.326;14.304;2023-02-13T06:15:56;95.83;;;43.23;;
8361;SDS011;4218;48.326;14.304;2023-02-13T06:18:23;88.03;;;38.47;;
8361;SDS011;4218;48.326;14.304;2023-02-13T06:20:48;97.03;;;38.97;;
8361;SDS011;4218;48.326;14.304;2023-02-13T06:23:14;86.57;;;36.90;;
8361;SDS011;4218;48.326;14.304;2023-02-13T06:25:40;79.17;;;34.60;;
8361;SDS011;4218;48.326;14.304;2023-02-13T06:28:05;88.30;;;35.50;;
8361;SDS011;4218;48.326;14.304;2023-02-13T06:30:31;94.47;;;36.77;;
8361;SDS011;4218;48.326;14.304;2023-02-13T06:32:57;89.53;;;43.70;;
8361;SDS011;4218;48.326;14.304;2023-02-13T06:35:22;95.37;;;38.67;;
8361;SDS011;4218;48.326;14.304;2023-02-13T06:37:50;97.30;;;42.77;;
8361;SDS011;4218;48.326;14.304;2023-02-13T06:40:16;90.97;;;43.40;;
8361;SDS011;4218;48.326;14.304;2023-02-13T06:42:42;88.63;;;40.73;;
8361;SDS011;4218;48.326;14.304;2023-02-13T06:45:08;79.63;;;38.60;;
8361;SDS011;4218;48.326;14.304;2023-02-13T06:47:33;89.70;;;38.97;;
8361;SDS011;4218;48.326;14.304;2023-02-13T06:49:59;84.17;;;43.37;;
8361;SDS011;4218;48.326;14.304;2023-02-13T06:52:24;97.07;;;41.90;;
8361;SDS011;4218;48.326;14.304;2023-02-13T06:54:50;85.83;;;44.37;;
8361;SDS011;4218;48.326;14.304;2023-02-13T06:57:15;113.47;;;45.20;;
8361;SDS011;4218;48.326;14.304;2023-02-13T06:59:41;93.90;;;42.17;;
8361;SDS011;4218;48.326;14.304;2023-02-13T07:02:10;97.90;;;40.80;;
8361;SDS011;4218;48.326;14.304;2023-02-13T07:04:36;117.97;;;43.50;;
8361;SDS011;4218;48.326;14.304;2023-02-13T07:07:01;115.17;;;40.30;;
8361;SDS011;4218;48.326;14.304;2023-02-13T07:09:26;100.73;;;46.60;;
8361;SDS011;4218;48.326;14.304;2023-02-13T07:11:52;107.53;;;43.27;;
8361;SDS011;4218;48.326;14.304;2023-02-13T07:14:17;109.63;;;43.60;;
8361;SDS011;4218;48.326;14.304;2023-02-13T07:16:43;100.97;;;39.97;;
8361;SDS011;4218;48.326;14.304;2023-02-13T07:19:08;103.43;;;40.43;;
8361;SDS011;4218;48.326;14.304;2023-02-13T07:21:33;89.23;;;37.50;;
8361;SDS011;4218;48.326;14.304;2023-02-13T07:23:59;103.37;;;40.17;;
8361;SDS011;4218;48.326;14.304;2023-02-13T07:26:25;93.17;;;40.77;;
8361;SDS011;4218;48.326;14.304;2023-02-13T07:28:51;89.43;;;38.93;;
8361;SDS011;4218;48.326;14.304;2023-02-13T07:31:16;93.90;;;44.90;;
8361;SDS011;4218;48.326;14.304;2023-02-13T07:33:47;104.27;;;42.53;;
8361;SDS011;4218;48.326;14.304;2023-02-13T07:36:13;102.90;;;50.43;;
8361;SDS011;4218;48.326;14.304;2023-02-13T07:38:40;84.80;;;43.67;;
8361;SDS011;4218;48.326;14.304;2023-02-13T07:41:06;96.40;;;41.00;;
8361;SDS011;4218;48.326;14.304;2023-02-13T07:43:31;95.40;;;44.87;;
8361;SDS011;4218;48.326;14.304;2023-02-13T07:45:57;97.13;;;44.53;;
8361;SDS011;4218;48.326;14.304;2023-02-13T07:48:27;99.43;;;45.50;;
8361;SDS011;4218;48.326;14.304;2023-02-13T07:50:53;98.77;;;44.67;;
8361;SDS011;4218;48.326;14.304;2023-02-13T07:53:19;101.70;;;46.17;;
8361;SDS011;4218;48.326;14.304;2023-02-13T07:55:46;90.27;;;44.87;;
8361;SDS011;4218;48.326;14.304;2023-02-13T07:58:12;96.97;;;43.77;;
8361;SDS011;4218;48.326;14.304;2023-02-13T08:00:37;87.53;;;43.37;;
8361;SDS011;4218;48.326;14.304;2023-02-13T08:03:02;86.57;;;52.83;;
8361;SDS011;4218;48.326;14.304;2023-02-13T08:05:28;85.13;;;50.07;;
8361;SDS011;4218;48.326;14.304;2023-02-13T08:07:56;78.37;;;42.37;;
8361;SDS011;4218;48.326;14.304;2023-02-13T08:10:21;81.97;;;42.23;;
8361;SDS011;4218;48.326;14.304;2023-02-13T08:13:05;83.07;;;45.80;;
8361;SDS011;4218;48.326;14.304;2023-02-13T08:15:32;85.97;;;43.50;;
8361;SDS011;4218;48.326;14.304;2023-02-13T08:17:57;75.23;;;44.63;;
8361;SDS011;4218;48.326;14.304;2023-02-13T08:20:22;84.00;;;49.27;;
8361;SDS011;4218;48.326;14.304;2023-02-13T08:22:48;84.63;;;47.40;;
8361;SDS011;4218;48.326;14.304;2023-02-13T08:25:13;81.53;;;42.53;;
8361;SDS011;4218;48.326;14.304;2023-02-13T08:27:39;94.20;;;44.77;;
8361;SDS011;4218;48.326;14.304;2023-02-13T08:30:04;64.83;;;41.10;;
8361;SDS011;4218;48.326;14.304;2023-02-13T08:32:30;85.70;;;48.47;;
8361;SDS011;4218;48.326;14.304;2023-02-13T08:34:56;72.03;;;40.93;;
8361;SDS011;4218;48.326;14.304;2023-02-13T08:37:21;62.43;;;40.67;;
8361;SDS011;4218;48.326;14.304;2023-02-13T08:39:46;64.03;;;39.77;;
8361;SDS011;4218;48.326;14.304;2023-02-13T08:42:12;60.67;;;35.67;;
8361;SDS011;4218;48.326;14.304;2023-02-13T08:44:37;63.60;;;37.17;;
8361;SDS011;4218;48.326;14.304;2023-02-13T08:47:05;58.87;;;35.67;;
8361;SDS011;4218;48.326;14.304;2023-02-13T08:49:31;56.80;;;34.03;;
8361;SDS011;4218;48.326;14.304;2023-02-13T08:51:57;69.17;;;35.50;;
8361;SDS011;4218;48.326;14.304;2023-02-13T08:54:22;50.43;;;33.30;;
8361;SDS011;4218;48.326;14.304;2023-02-13T08:56:48;63.07;;;34.37;;
8361;SDS011;4218;48.326;14.304;2023-02-13T08:59:13;57.93;;;34.73;;
8361;SDS011;4218;48.326;14.304;2023-02-13T09:01:38;52.53;;;37.47;;
8361;SDS011;4218;48.326;14.304;2023-02-13T09:04:04;72.20;;;39.47;;
8361;SDS011;4218;48.326;14.304;2023-02-13T09:06:31;66.77;;;40.03;;
8361;SDS011;4218;48.326;14.304;2023-02-13T09:08:56;60.97;;;39.10;;
8361;SDS011;4218;48.326;14.304;2023-02-13T09:11:22;58.87;;;38.30;;
8361;SDS011;4218;48.326;14.304;2023-02-13T09:13:47;72.40;;;35.63;;
8361;SDS011;4218;48.326;14.304;2023-02-13T09:16:14;65.47;;;43.90;;
8361;SDS011;4218;48.326;14.304;2023-02-13T09:18:42;73.47;;;35.80;;
8361;SDS011;4218;48.326;14.304;2023-02-13T09:21:11;57.57;;;33.33;;
8361;SDS011;4218;48.326;14.304;2023-02-13T09:23:37;58.00;;;35.17;;
8361;SDS011;4218;48.326;14.304;2023-02-13T09:26:05;65.10;;;35.37;;
8361;SDS011;4218;48.326;14.304;2023-02-13T09:28:35;77.30;;;39.23;;
8361;SDS011;4218;48.326;14.304;2023-02-13T09:31:07;65.70;;;38.20;;
8361;SDS011;4218;48.326;14.304;2023-02-13T09:33:34;70.33;;;40.47;;
8361;SDS011;4218;48.326;14.304;2023-02-13T09:36:07;63.03;;;37.63;;
8361;SDS011;4218;48.326;14.304;2023-02-13T09:38:34;63.67;;;37.23;;
8361;SDS011;4218;48.326;14.304;2023-02-13T09:41:06;72.13;;;48.10;;
8361;SDS011;4218;48.326;14.304;2023-02-13T09:46:15;64.77;;;34.90;;
8361;SDS011;4218;48.326;14.304;2023-02-13T09:48:44;71.67;;;36.10;;
8361;SDS011;4218;48.326;14.304;2023-02-13T09:51:14;63.13;;;33.23;;
8361;SDS011;4218;48.326;14.304;2023-02-13T09:53:43;63.40;;;32.30;;
8361;SDS011;4218;48.326;14.304;2023-02-13T09:56:15;55.40;;;32.47;;
8361;SDS011;4218;48.326;14.304;2023-02-13T09:58:48;49.63;;;30.20;;
8361;SDS011;4218;48.326;14.304;2023-02-13T10:01:25;60.73;;;31.37;;
8361;SDS011;4218;48.326;14.304;2023-02-13T10:06:45;55.40;;;29.27;;
8361;SDS011;4218;48.326;14.304;2023-02-13T10:09:31;51.53;;;31.97;;
8361;SDS011;4218;48.326;14.304;2023-02-13T10:17:28;47.30;;;29.07;;
8361;SDS011;4218;48.326;14.304;2023-02-13T10:20:07;45.10;;;31.13;;
8361;SDS011;4218;48.326;14.304;2023-02-13T10:22:52;49.90;;;30.60;;
8361;SDS011;4218;48.326;14.304;2023-02-13T10:25:24;51.93;;;26.97;;
8361;SDS011;4218;48.326;14.304;2023-02-13T10:27:58;45.83;;;28.73;;
8361;SDS011;4218;48.326;14.304;2023-02-13T10:30:31;48.50;;;31.50;;
8361;SDS011;4218;48.326;14.304;2023-02-13T10:35:47;39.87;;;27.73;;
8361;SDS011;4218;48.326;14.304;2023-02-13T10:38:26;50.63;;;30.33;;
8361;SDS011;4218;48.326;14.304;2023-02-13T10:43:23;45.93;;;29.03;;
8361;SDS011;4218;48.326;14.304;2023-02-13T10:45:55;44.60;;;32.17;;
8361;SDS011;4218;48.326;14.304;2023-02-13T10:48:35;46.50;;;29.33;;
8361;SDS011;4218;48.326;14.304;2023-02-13T10:51:24;40.47;;;30.43;;
8361;SDS011;4218;48.326;14.304;2023-02-13T11:02:58;38.80;;;30.10;;
8361;SDS011;4218;48.326;14.304;2023-02-13T11:05:29;47.73;;;34.73;;
8361;SDS011;4218;48.326;14.304;2023-02-13T11:07:56;41.90;;;33.90;;
8361;SDS011;4218;48.326;14.304;2023-02-13T11:10:24;48.43;;;37.87;;
8361;SDS011;4218;48.326;14.304;2023-02-13T11:12:50;53.27;;;32.07;;
8361;SDS011;4218;48.326;14.304;2023-02-13T11:15:20;44.47;;;30.83;;
8361;SDS011;4218;48.326;14.304;2023-02-13T11:17:55;46.37;;;29.10;;
8361;SDS011;4218;48.326;14.304;2023-02-13T11:25:54;52.80;;;32.70;;
8361;SDS011;4218;48.326;14.304;2023-02-13T11:28:22;53.23;;;33.43;;
8361;SDS011;4218;48.326;14.304;2023-02-13T11:30:47;59.77;;;38.60;;
8361;SDS011;4218;48.326;14.304;2023-02-13T11:33:23;57.20;;;32.03;;
8361;SDS011;4218;48.326;14.304;2023-02-13T11:36:08;62.27;;;31.43;;
8361;SDS011;4218;48.326;14.304;2023-02-13T11:38:38;53.10;;;30.47;;
8361;SDS011;4218;48.326;14.304;2023-02-13T11:43:35;60.10;;;33.97;;
8361;SDS011;4218;48.326;14.304;2023-02-13T11:46:09;57.73;;;33.80;;
8361;SDS011;4218;48.326;14.304;2023-02-13T11:48:42;52.30;;;35.27;;
8361;SDS011;4218;48.326;14.304;2023-02-13T11:51:08;48.87;;;34.23;;
8361;SDS011;4218;48.326;14.304;2023-02-13T11:53:37;59.10;;;36.47;;
8361;SDS011;4218;48.326;14.304;2023-02-13T11:56:11;50.83;;;36.33;;
8361;SDS011;4218;48.326;14.304;2023-02-13T11:58:38;53.97;;;37.30;;
8361;SDS011;4218;48.326;14.304;2023-02-13T12:01:09;47.57;;;35.50;;
8361;SDS011;4218;48.326;14.304;2023-02-13T12:06:26;56.80;;;38.80;;
8361;SDS011;4218;48.326;14.304;2023-02-13T12:08:52;52.73;;;31.80;;
8361;SDS011;4218;48.326;14.304;2023-02-13T12:14:04;50.20;;;34.33;;
8361;SDS011;4218;48.326;14.304;2023-02-13T12:16:31;52.03;;;32.83;;
8361;SDS011;4218;48.326;14.304;2023-02-13T12:19:04;50.47;;;30.87;;
8361;SDS011;4218;48.326;14.304;2023-02-13T12:30:03;42.20;;;28.50;;
8361;SDS011;4218;48.326;14.304;2023-02-13T12:32:47;42.67;;;28.80;;
8361;SDS011;4218;48.326;14.304;2023-02-13T13:09:09;46.53;;;33.30;;
8361;SDS011;4218;48.326;14.304;2023-02-13T13:11:59;59.87;;;30.93;;
8361;SDS011;4218;48.326;14.304;2023-02-13T13:14:37;59.00;;;32.57;;
8361;SDS011;4218;48.326;14.304;2023-02-13T13:17:20;45.60;;;29.47;;
8361;SDS011;4218;48.326;14.304;2023-02-13T13:25:27;50.40;;;36.23;;
8361;SDS011;4218;48.326;14.304;2023-02-13T13:27:57;61.77;;;55.47;;
8361;SDS011;4218;48.326;14.304;2023-02-13T13:30:31;50.40;;;44.53;;
8361;SDS011;4218;48.326;14.304;2023-02-13T13:33:02;40.13;;;32.57;;
8361;SDS011;4218;48.326;14.304;2023-02-13T13:35:32;53.17;;;30.77;;
8361;SDS011;4218;48.326;14.304;2023-02-13T13:48:59;52.10;;;35.33;;
8361;SDS011;4218;48.326;14.304;2023-02-13T13:51:48;54.63;;;36.00;;
8361;SDS011;4218;48.326;14.304;2023-02-13T13:59:17;45.33;;;36.97;;
8361;SDS011;4218;48.326;14.304;2023-02-13T14:01:44;43.27;;;36.57;;
8361;SDS011;4218;48.326;14.304;2023-02-13T14:11:51;51.93;;;32.17;;
8361;SDS011;4218;48.326;14.304;2023-02-13T14:16:52;46.70;;;32.17;;
8361;SDS011;4218;48.326;14.304;2023-02-13T14:21:53;57.83;;;38.03;;
8361;SDS011;4218;48.326;14.304;2023-02-13T14:24:19;65.73;;;36.57;;
8361;SDS011;4218;48.326;14.304;2023-02-13T14:26:49;48.13;;;36.00;;
8361;SDS011;4218;48.326;14.304;2023-02-13T14:31:52;43.97;;;30.50;;
8361;SDS011;4218;48.326;14.304;2023-02-13T14:34:24;47.80;;;35.73;;
8361;SDS011;4218;48.326;14.304;2023-02-13T14:37:05;45.63;;;33.10;;
8361;SDS011;4218;48.326;14.304;2023-02-13T14:39:34;51.03;;;32.50;;
8361;SDS011;4218;48.326;14.304;2023-02-13T14:42:00;51.37;;;33.67;;
8361;SDS011;4218;48.326;14.304;2023-02-13T14:47:21;40.47;;;29.53;;
8361;SDS011;4218;48.326;14.304;2023-02-13T14:50:17;38.37;;;28.93;;
8361;SDS011;4218;48.326;14.304;2023-02-13T14:52:47;40.20;;;30.37;;
8361;SDS011;4218;48.326;14.304;2023-02-13T14:58:34;45.73;;;35.90;;
8361;SDS011;4218;48.326;14.304;2023-02-13T15:01:10;43.90;;;30.93;;
8361;SDS011;4218;48.326;14.304;2023-02-13T15:03:50;36.40;;;28.00;;
8361;SDS011;4218;48.326;14.304;2023-02-13T15:06:27;45.97;;;31.87;;
8361;SDS011;4218;48.326;14.304;2023-02-13T15:08:59;44.43;;;29.90;;
8361;SDS011;4218;48.326;14.304;2023-02-13T15:11:34;45.57;;;30.50;;
8361;SDS011;4218;48.326;14.304;2023-02-13T15:14:15;39.30;;;32.40;;
8361;SDS011;4218;48.326;14.304;2023-02-13T15:16:42;40.20;;;31.93;;
8361;SDS011;4218;48.326;14.304;2023-02-13T15:19:13;59.07;;;43.73;;
8361;SDS011;4218;48.326;14.304;2023-02-13T15:21:45;51.47;;;40.60;;
8361;SDS011;4218;48.326;14.304;2023-02-13T15:24:13;47.37;;;32.97;;
8361;SDS011;4218;48.326;14.304;2023-02-13T15:26:38;44.60;;;34.10;;
8361;SDS011;4218;48.326;14.304;2023-02-13T15:29:12;43.40;;;33.07;;
8361;SDS011;4218;48.326;14.304;2023-02-13T15:31:40;41.53;;;32.73;;
8361;SDS011;4218;48.326;14.304;2023-02-13T15:34:26;43.73;;;30.67;;
8361;SDS011;4218;48.326;14.304;2023-02-13T15:36:54;47.13;;;29.00;;
8361;SDS011;4218;48.326;14.304;2023-02-13T15:39:24;46.63;;;29.07;;
8361;SDS011;4218;48.326;14.304;2023-02-13T15:41:53;40.50;;;30.70;;
8361;SDS011;4218;48.326;14.304;2023-02-13T15:44:25;47.90;;;30.50;;
8361;SDS011;4218;48.326;14.304;2023-02-13T15:46:54;37.03;;;28.87;;
8361;SDS011;4218;48.326;14.304;2023-02-13T15:49:24;34.43;;;29.77;;
8361;SDS011;4218;48.326;14.304;2023-02-13T15:52:00;38.07;;;27.03;;
8361;SDS011;4218;48.326;14.304;2023-02-13T15:54:31;41.90;;;29.43;;
8361;SDS011;4218;48.326;14.304;2023-02-13T15:56:59;45.77;;;29.47;;
8361;SDS011;4218;48.326;14.304;2023-02-13T15:59:29;50.70;;;37.37;;
8361;SDS011;4218;48.326;14.304;2023-02-13T16:01:57;46.30;;;34.60;;
8361;SDS011;4218;48.326;14.304;2023-02-13T16:04:24;41.90;;;28.67;;
8361;SDS011;4218;48.326;14.304;2023-02-13T16:06:51;37.47;;;30.93;;
8361;SDS011;4218;48.326;14.304;2023-02-13T16:09:32;37.47;;;29.73;;
8361;SDS011;4218;48.326;14.304;2023-02-13T16:11:59;40.93;;;28.40;;
8361;SDS011;4218;48.326;14.304;2023-02-13T16:14:27;41.53;;;28.97;;
8361;SDS011;4218;48.326;14.304;2023-02-13T16:16:57;40.90;;;28.97;;
8361;SDS011;4218;48.326;14.304;2023-02-13T16:19:35;41.57;;;33.07;;
8361;SDS011;4218;48.326;14.304;2023-02-13T16:23:06;38.03;;;29.37;;
8361;SDS011;4218;48.326;14.304;2023-02-13T16:30:34;50.10;;;31.63;;
8361;SDS011;4218;48.326;14.304;2023-02-13T16:38:28;38.20;;;34.17;;
8361;SDS011;4218;48.326;14.304;2023-02-13T16:41:39;41.67;;;32.27;;
8361;SDS011;4218;48.326;14.304;2023-02-13T16:43:53;45.93;;;41.47;;
8361;SDS011;4218;48.326;14.304;2023-02-13T16:46:37;36.53;;;30.87;;
8361;SDS011;4218;48.326;14.304;2023-02-13T16:54:45;32.20;;;28.47;;
8361;SDS011;4218;48.326;14.304;2023-02-13T17:07:22;29.60;;;24.47;;
8361;SDS011;4218;48.326;14.304;2023-02-13T17:09:53;32.97;;;25.17;;
8361;SDS011;4218;48.326;14.304;2023-02-13T17:12:27;34.43;;;26.20;;
8361;SDS011;4218;48.326;14.304;2023-02-13T17:14:55;37.37;;;28.30;;
8361;SDS011;4218;48.326;14.304;2023-02-13T17:17:22;34.60;;;28.23;;
8361;SDS011;4218;48.326;14.304;2023-02-13T17:19:48;33.33;;;26.50;;
8361;SDS011;4218;48.326;14.304;2023-02-13T17:22:48;36.60;;;26.33;;
8361;SDS011;4218;48.326;14.304;2023-02-13T17:25:23;30.90;;;27.27;;
8361;SDS011;4218;48.326;14.304;2023-02-13T17:27:51;42.77;;;31.43;;
8361;SDS011;4218;48.326;14.304;2023-02-13T17:30:25;38.37;;;30.27;;
8361;SDS011;4218;48.326;14.304;2023-02-13T17:32:59;40.30;;;31.83;;
8361;SDS011;4218;48.326;14.304;2023-02-13T17:35:26;38.03;;;33.43;;
8361;SDS011;4218;48.326;14.304;2023-02-13T17:37:52;36.47;;;31.90;;
8361;SDS011;4218;48.326;14.304;2023-02-13T17:40:19;41.90;;;34.63;;
8361;SDS011;4218;48.326;14.304;2023-02-13T17:42:46;38.63;;;34.43;;
8361;SDS011;4218;48.326;14.304;2023-02-13T17:45:16;38.03;;;32.27;;
8361;SDS011;4218;48.326;14.304;2023-02-13T17:47:43;37.10;;;30.27;;
8361;SDS011;4218;48.326;14.304;2023-02-13T17:50:09;33.90;;;30.40;;
8361;SDS011;4218;48.326;14.304;2023-02-13T17:52:35;35.80;;;32.47;;
8361;SDS011;4218;48.326;14.304;2023-02-13T17:55:01;41.40;;;37.10;;
8361;SDS011;4218;48.326;14.304;2023-02-13T17:57:26;44.60;;;40.37;;
8361;SDS011;4218;48.326;14.304;2023-02-13T17:59:51;37.00;;;30.10;;
8361;SDS011;4218;48.326;14.304;2023-02-13T18:02:20;38.37;;;29.83;;